Latest Coastal Weather Observations for Milingimbi

IDD60701

Issued at 7:15 am CST Thursday 27 November 2014 (issued every 10 minutes, with the page automatically refreshed every 10 minutes)

About coastal observations | Map of coastal stations | Coastal observations for NT | Marine services | Other Formats
Station Details ID: 014404 Name: MILINGIMBI AIRPORT Lat: -12.09 Lon: 134.89 Height: 15.0 m
Data from the previous 72 hours. | See also: Recent months at Milingimbi
Date/Time
CST
Temp

°C
Wind Pressure Rain
since 9am
mm
Weather Cloud Vis
km
Sea
Height
m
Swell
Dir
 
Speed
knots
Gust
knots
hPa Trend Height
m
Period
s
Dir
27/07:00am 26.9 SSE 4 5 1009.2 - 0.0 - - - - - - -
27/06:30am 25.8 SSE 3 5 1008.8 - 0.0 - - - - - - -
27/06:00am 25.2 S 4 5 1008.2 - 0.0 - - - - - - -
27/05:30am 25.3 SSE 3 4 1008.1 - 0.0 - - - - - - -
27/05:00am 25.5 S 3 5 1007.7 - 0.0 - - - - - - -
27/04:30am 25.9 CALM 0 0 1007.5 - 0.0 - - - - - - -
27/04:00am 26.2 S 1 4 1007.4 - 0.0 - - - - - - -
27/03:30am 26.7 SSE 2 4 1007.3 - 0.0 - - - - - - -
27/03:00am 27.4 SE 5 7 1007.0 - 0.0 - - - - - - -
27/02:30am 27.9 E 5 8 1007.2 - 0.0 - - - - - - -
27/02:00am 28.1 ESE 5 7 1007.3 - 0.0 - - - - - - -
27/01:30am 28.7 E 6 9 1007.6 - 0.0 - - - - - - -
27/01:00am 28.8 E 5 9 1008.0 - 0.0 - - - - - - -
27/12:30am 28.9 E 5 7 1008.3 - 0.0 - - - - - - -
27/12:00am 29.0 E 7 11 1008.1 - 0.0 - - - - - - -
 
Date/Time
CST
Temp

°C
Wind Pressure Rain
since 9am
mm
Weather Cloud Vis
km
Sea
Height
m
Swell
Dir
 
Speed
knots
Gust
knots
hPa Trend Height
m
Period
s
Dir
26/11:30pm 29.0 ENE 6 10 1008.3 - 0.0 - - - - - - -
26/11:00pm 29.3 ENE 6 10 1008.7 - 0.0 - - - - - - -
26/10:30pm 29.2 ENE 5 9 1008.5 - 0.0 - - - - - - -
26/10:00pm 29.3 NE 6 9 1008.6 - 0.0 - - - - - - -
26/09:30pm 29.2 NE 5 8 1008.3 - 0.0 - - - - - - -
26/09:00pm 28.6 NNE 2 6 1007.7 - 0.0 - - - - - - -
26/08:30pm 28.5 CALM 0 2 1007.7 - 0.0 - - - - - - -
26/08:00pm 28.8 W 3 5 1007.3 - 0.0 - - - - - - -
26/07:30pm 29.7 SW 3 5 1007.0 - 0.0 - - - - - - -
26/07:00pm 29.9 ENE 5 9 1006.8 - 0.0 - - - - - - -
26/06:30pm 30.2 NE 5 8 1006.4 - 0.0 - - - - - - -
26/06:00pm 30.6 NE 6 10 1005.9 - 0.0 - - - - - - -
26/05:30pm 31.5 NNE 7 13 1006.1 - 0.0 - - - - - - -
26/05:00pm 31.8 NNE 8 14 1005.8 - 0.0 - - - - - - -
26/04:30pm 32.1 NNE 8 15 1005.5 - 0.0 - - - - - - -
26/04:00pm 32.3 N 8 15 1005.6 - 0.0 - - - - - - -
26/03:30pm 32.5 N 10 15 1005.7 - 0.0 - - - - - - -
26/03:00pm 32.1 NNE 8 15 1005.6 - 0.0 - - - - - - -
26/02:30pm 33.0 NE 7 12 1006.2 - 0.0 - - - - - - -
26/02:00pm 33.7 ENE 7 11 1006.6 - 0.0 - - - - - - -
26/01:30pm 33.1 ENE 8 15 1007.0 - 0.0 - - - - - - -
26/01:00pm 33.0 ENE 10 15 1007.5 - 0.0 - - - - - - -
26/12:30pm 32.5 E 10 16 1008.0 - 0.0 - - - - - - -
26/12:00pm 31.7 NE 11 16 1008.2 - 0.0 - - - - - - -
26/11:30am 31.9 E 7 11 1008.8 - 0.0 - - - - - - -
26/11:00am 30.9 E 6 10 1009.2 - 0.0 - - - - - - -
26/10:30am 32.1 E 7 14 1009.3 - 0.0 - - - - - - -
26/10:00am 31.3 ESE 9 13 1009.6 - 0.0 - - - - - - -
26/09:30am 31.0 E 9 13 1009.6 - 0.0 - - - - - - -
26/09:00am 31.1 ESE 8 13 1009.4 - 0.0 - - - - - - -
26/08:30am 31.0 ESE 8 13 1009.4 - 0.0 - - - - - - -
26/08:00am 29.4 SE 8 11 1009.0 - 0.0 - - - - - - -
26/07:30am 28.7 SSE 6 9 1008.5 - 0.0 - - - - - - -
26/07:00am 27.3 SE 5 7 1008.1 - 0.0 - - - - - - -
26/06:30am 26.5 SSE 1 4 1007.9 - 0.0 - - - - - - -
26/06:00am 26.2 SSE 3 5 1007.3 - 0.0 - - - - - - -
26/05:30am 26.0 CALM 0 0 1007.1 - 0.0 - - - - - - -
26/05:00am 26.3 CALM 0 0 1006.7 - 0.0 - - - - - - -
26/04:30am 26.6 CALM 0 0 1006.6 - 0.0 - - - - - - -
26/04:00am 26.9 SSW 2 4 1006.6 - 0.0 - - - - - - -
26/03:30am 27.3 S 4 5 1006.5 - 0.0 - - - - - - -
26/03:00am 27.4 SSW 4 5 1006.1 - 0.0 - - - - - - -
26/02:30am 27.7 SSW 4 6 1006.6 - 0.0 - - - - - - -
26/02:00am 27.7 S 4 6 1006.8 - 0.0 - - - - - - -
26/01:30am 27.7 CALM 0 0 1007.1 - 0.0 - - - - - - -
26/01:00am 27.5 CALM 0 0 1007.4 - 0.0 - - - - - - -
26/12:30am 27.8 CALM 0 0 1007.6 - 0.0 - - - - - - -
26/12:00am 28.0 NE 1 3 1007.7 - 0.0 - - - - - - -
 
Date/Time
CST
Temp

°C
Wind Pressure Rain
since 9am
mm
Weather Cloud Vis
km
Sea
Height
m
Swell
Dir
 
Speed
knots
Gust
knots
hPa Trend Height
m
Period
s
Dir
25/11:30pm 28.2 NE 2 4 1008.2 - 0.0 - - - - - - -
25/11:00pm 28.3 NE 4 7 1008.3 - 0.0 - - - - - - -
25/10:30pm 28.4 NE 4 6 1008.6 - 0.0 - - - - - - -
25/10:00pm 28.5 NE 4 5 1008.6 - 0.0 - - - - - - -
25/09:30pm 28.6 NE 5 8 1008.5 - 0.0 - - - - - - -
25/09:00pm 28.6 NNE 4 7 1008.0 - 0.0 - - - - - - -
25/08:30pm 28.7 NE 6 8 1008.0 - 0.0 - - - - - - -
25/08:00pm 28.9 NE 5 8 1007.9 - 0.0 - - - - - - -
25/07:30pm 29.1 NNE 5 8 1007.6 - 0.0 - - - - - - -
25/07:00pm 29.0 NNE 6 11 1007.1 - 0.0 - - - - - - -
25/06:30pm 29.1 N 6 11 1006.8 - 0.0 - - - - - - -
25/06:00pm 29.5 N 5 10 1006.4 - 0.0 - - - - - - -
25/05:30pm 29.9 N 8 14 1006.3 - 0.0 - - - - - - -
25/05:00pm 31.0 N 8 16 1005.8 - 0.0 - - - - - - -
25/04:30pm 31.5 NNE 8 13 1005.7 - 0.0 - - - - - - -
25/04:00pm 31.8 N 7 12 1005.6 - 0.0 - - - - - - -
25/03:30pm 31.8 NNE 9 16 1005.9 - 0.0 - - - - - - -
25/03:00pm 32.9 NNE 8 14 1006.1 - 0.0 - - - - - - -
25/02:30pm 32.4 NNE 10 14 1006.8 - 0.0 - - - - - - -
25/02:00pm 32.9 N 9 15 1007.3 - 0.0 - - - - - - -
25/01:30pm 33.3 ENE 9 16 1008.0 - 0.0 - - - - - - -
25/01:00pm 33.8 ENE 8 13 1008.4 - 0.0 - - - - - - -
25/12:30pm 33.4 E 8 14 1008.8 - 0.0 - - - - - - -
25/12:00pm 33.5 ENE 7 11 1008.6 - 0.0 - - - - - - -
25/11:30am 33.1 NE 8 13 1009.0 - 0.0 - - - - - - -
25/11:00am 32.6 ENE 6 10 1009.3 - 0.0 - - - - - - -
25/10:30am 32.7 ENE 7 11 1009.6 - 0.0 - - - - - - -
25/10:00am 32.1 E 6 11 1009.7 - 0.0 - - - - - - -
25/09:30am 31.8 ENE 8 11 1009.7 - 0.0 - - - - - - -
25/09:00am 31.3 NNE 4 7 1009.5 - 0.0 - - - - - - -
25/08:30am 29.5 N 2 4 1009.6 - 0.0 - - - - - - -
25/08:00am 29.1 NE 1 3 1009.4 - 0.0 - - - - - - -
25/07:30am 28.4 S 3 4 1009.3 - 0.0 - - - - - - -
25/07:00am 27.4 S 4 5 1009.3 - 0.0 - - - - - - -
25/06:30am 26.6 CALM 0 0 1008.9 - 0.0 - - - - - - -
25/06:00am 26.3 CALM 0 0 1008.2 - 0.0 - - - - - - -
25/05:30am 26.3 CALM 0 0 1008.0 - 0.0 - - - - - - -
25/05:00am 26.4 CALM 0 3 1007.8 - 0.0 - - - - - - -
25/04:30am 26.5 NNE 1 4 1007.7 - 0.0 - - - - - - -
25/04:00am 26.5 NE 1 4 1007.9 - 0.0 - - - - - - -
25/03:30am 26.6 CALM 0 0 1007.9 - 0.0 - - - - - - -
25/03:00am 26.6 CALM 0 0 1007.9 - 0.0 - - - - - - -
25/02:30am 26.6 CALM 0 0 1008.1 - 0.0 - - - - - - -
25/02:00am 27.3 CALM 0 0 1008.7 - 0.0 - - - - - - -
25/01:30am 27.5 CALM 0 3 1009.1 - 0.0 - - - - - - -
25/01:00am 27.8 N 1 4 1009.0 - 0.0 - - - - - - -
25/12:30am 27.4 CALM 0 0 1009.5 - 0.0 - - - - - - -
25/12:00am 27.7 CALM 0 0 1009.6 - 0.0 - - - - - - -
 
Date/Time
CST
Temp

°C
Wind Pressure Rain
since 9am
mm
Weather Cloud Vis
km
Sea
Height
m
Swell
Dir
 
Speed
knots
Gust
knots
hPa Trend Height
m
Period
s
Dir
24/11:30pm 27.8 CALM 0 0 1009.6 - 0.0 - - - - - - -
24/11:00pm 28.0 CALM 0 3 1009.7 - 0.0 - - - - - - -
24/10:30pm 28.3 NE 1 4 1009.9 - 0.0 - - - - - - -
24/10:00pm 28.4 N 3 5 1009.8 - 0.0 - - - - - - -
24/09:30pm 28.4 N 3 5 1009.4 - 0.0 - - - - - - -
24/09:00pm 28.4 NNE 4 7 1009.0 - 0.0 - - - - - - -
24/08:30pm 28.2 N 4 7 1008.7 - 0.0 - - - - - - -
24/08:00pm 29.0 N 4 7 1008.6 - 0.0 - - - - - - -
24/07:30pm 28.9 N 5 8 1008.3 - 0.0 - - - - - - -
24/07:00pm 29.1 N 5 8 1007.9 - 0.0 - - - - - - -
24/06:30pm 29.2 N 6 11 1007.3 - 0.0 - - - - - - -
24/06:00pm 29.3 N 6 9 1006.9 - 0.0 - - - - - - -
24/05:30pm 29.9 N 8 13 1006.5 - 0.0 - - - - - - -
24/05:00pm 30.1 N 7 13 1006.5 - 0.0 - - - - - - -
24/04:30pm 30.5 N 9 13 1006.4 - 0.0 - - - - - - -
24/04:00pm 30.6 NNE 9 14 1006.6 - 0.0 - - - - - - -
24/03:30pm 31.4 N 9 15 1006.6 - 0.0 - - - - - - -
24/03:00pm 31.7 N 8 16 1007.0 - 0.0 - - - - - - -
24/02:30pm 31.5 N 8 15 1008.1 - 0.0 - - - - - - -
24/02:00pm 32.0 N 9 15 1008.5 - 0.0 - - - - - - -
24/01:30pm 31.8 N 8 15 1009.1 - 0.0 - - - - - - -
24/01:00pm 31.8 N 8 12 1009.7 - 0.0 - - - - - - -
24/12:30pm 30.5 NNE 7 9 1010.3 - 0.0 - - - - - - -
24/12:00pm 30.7 N 7 11 1010.5 - 0.0 - - - - - - -
24/11:30am 31.0 N 9 14 1010.7 - 0.0 - - - - - - -
24/11:00am 31.4 N 7 12 1010.9 - 0.0 - - - - - - -
24/10:30am 31.4 NNE 7 11 1011.0 - 0.0 - - - - - - -
24/10:00am 30.8 NE 7 12 1011.1 - 0.0 - - - - - - -
24/09:30am 31.8 NE 7 11 1010.9 - 0.0 - - - - - - -
24/09:00am 31.0 ENE 6 11 1010.5 - 0.0 - - - - - - -
24/08:30am 30.8 ENE 7 12 1010.6 - 0.0 - - - - - - -
24/08:00am 30.2 ENE 6 10 1010.4 - 0.0 - - - - - - -
24/07:30am 29.7 NE 5 8 1010.2 - 0.0 - - - - - - -

Other Formats:

Comma delimited format used in spreadsheet applications
http://www.bom.gov.au/fwo/IDD60701/IDD60701.94140.axf

JavaScript Object Notation format (JSON) in row-major order
http://www.bom.gov.au/fwo/IDD60701/IDD60701.94140.json